Terminal Aerodrome Forecast
Issued by NWS

Current Version | Previous Version | Text Only | Print | Product List | Glossary On
Versions: 1 2 3 4 5 6 7 8 9 10 11 12 13 14 15 16 17 18 19
000
FTUS43 KMPX 012340
TAFRWF
TAF
KRWF 012340Z 0200/0224 35012KT P6SM SKC
     FM020600 33005KT P6SM SKC
     FM021300 22007KT P6SM SCT150
     FM022000 20010KT P6SM BKN150=

USA.gov is the U.S. government's official web portal to all federal, state and local government web resources and services.